Time;durP1;ratioP1;P1;durP2;ratioP2;P2;SDS_P1;SDS_P2;PMS_P1;PMS_P2;Temp;Humidity;BMP_temperature;BMP_pressure;BME280_temperature;BME280_humidity;BME280_pressure;Samples;Min_cycle;Max_cycle;Signal;HPM_P1;HPM_P2
2022/04/10 00:02:47;;;;;;;;;;;;;;;5.93;57.80;97246.28;6324562;28;20305;-63
2022/04/10 00:05:49;;;;;;;;;;;;;;;5.94;57.74;97241.03;6324210;28;19920;-63
2022/04/10 00:08:50;;;;;;;;;;;;;;;5.94;57.61;97242.78;6322453;28;19920;-64
2022/04/10 00:11:53;;;;;;;;;;;;;;;5.94;57.56;97250.63;6324653;28;19924;-64
2022/04/10 00:14:54;;;;;;;;;;;;;;;5.94;57.78;97248.00;6323952;28;20317;-64
2022/04/10 00:17:58;;;;;;;;;;;;;;;5.88;57.54;97250.84;6324405;28;20396;-64
2022/04/10 00:21:02;;;;;;;;;;;;;;;5.88;57.46;97232.56;6324028;28;20006;-64
2022/04/10 00:24:04;;;;;;;;;;;;;;;5.91;57.41;97245.50;6324215;28;19920;-65
2022/04/10 00:27:05;;;;;;;;;;;;;;;5.87;57.50;97243.94;6323983;28;20381;-65
2022/04/10 00:30:09;;;;;;;;;;;;;;;5.89;57.28;97244.69;6323876;28;20023;-64
2022/04/10 00:33:13;;;;;;;;;;;;;;;5.83;57.60;97244.06;6324169;28;19919;-64
2022/04/10 00:36:17;;;;;;;;;;;;;;;5.83;57.58;97244.06;6324109;28;19927;-64
2022/04/10 00:39:19;;;;;;;;;;;;;;;5.82;57.68;97246.72;6323941;28;20076;-64
2022/04/10 00:42:20;;;;;;;;;;;;;;;5.78;57.36;97240.78;6323344;28;19926;-64
2022/04/10 00:45:21;;;;;;;;;;;;;;;5.74;57.75;97238.34;6323383;28;19920;-64
2022/04/10 00:48:22;;;;;;;;;;;;;;;5.73;57.70;97232.25;6323834;28;20404;-64
2022/04/10 00:51:43;;;;;;;;;;;;;;;5.72;57.38;97235.81;6322336;28;19919;-64
2022/04/10 00:54:45;;;;;;;;;;;;;;;5.73;57.16;97241.88;6323276;28;19920;-65
2022/04/10 00:57:49;;;;;;;;;;;;;;;5.69;57.61;97241.16;6323657;28;20401;-64
2022/04/10 01:00:52;;;;;;;;;;;;;;;5.65;57.48;97243.91;6323171;28;19919;-63
2022/04/10 01:03:56;;;;;;;;;;;;;;;5.66;57.28;97241.22;6323412;28;20381;-63
2022/04/10 01:06:59;;;;;;;;;;;;;;;5.69;57.27;97245.50;6321725;28;19959;-64
2022/04/10 01:10:01;;;;;;;;;;;;;;;5.67;57.25;97248.19;6323045;28;20346;-63
2022/04/10 01:13:04;;;;;;;;;;;;;;;5.63;57.40;97257.03;6321004;28;19926;-64
2022/04/10 01:16:10;;;;;;;;;;;;;;;5.63;57.29;97244.84;6323032;28;19920;-64
2022/04/10 01:19:11;;;;;;;;;;;;;;;5.62;57.03;97250.13;6322431;28;19920;-63
2022/04/10 01:22:32;;;;;;;;;;;;;;;5.61;57.02;97251.88;6322335;28;19920;-64
2022/04/10 01:25:33;;;;;;;;;;;;;;;5.58;56.99;97258.97;6321996;28;19923;-65
2022/04/10 01:28:34;;;;;;;;;;;;;;;5.58;56.96;97253.75;6322719;28;20355;-64
2022/04/10 01:31:39;;;;;;;;;;;;;;;5.55;57.11;97253.88;6322499;28;20297;-64
2022/04/10 01:34:43;;;;;;;;;;;;;;;5.59;57.34;97245.00;6322585;28;20366;-64
2022/04/10 01:37:45;;;;;;;;;;;;;;;5.61;56.95;97253.66;6321865;28;19934;-65
2022/04/10 01:40:47;;;;;;;;;;;;;;;5.65;56.99;97250.00;6322107;28;19920;-65
2022/04/10 01:43:49;;;;;;;;;;;;;;;5.63;56.95;97251.81;6321588;28;20004;-64
2022/04/10 01:46:52;;;;;;;;;;;;;;;5.60;56.74;97257.16;6321470;28;19920;-63
2022/04/10 01:49:55;;;;;;;;;;;;;;;5.60;56.82;97257.16;6321761;28;19920;-64
2022/04/10 01:52:56;;;;;;;;;;;;;;;5.64;56.76;97263.97;6321578;28;20004;-64
2022/04/10 01:55:58;;;;;;;;;;;;;;;5.70;56.69;97260.25;6320420;28;20297;-63
2022/04/10 01:58:59;;;;;;;;;;;;;;;5.76;56.38;97258.25;6321915;28;19919;-64
2022/04/10 02:02:00;;;;;;;;;;;;;;;5.79;56.35;97258.13;6321574;28;20010;-64
2022/04/10 02:05:01;;;;;;;;;;;;;;;5.77;56.26;97273.00;6321330;28;19920;-65
2022/04/10 02:08:02;;;;;;;;;;;;;;;5.83;56.38;97270.16;6321426;28;20320;-64
2022/04/10 02:11:14;;;;;;;;;;;;;;;5.94;56.06;97281.97;6321693;28;20076;-64
2022/04/10 02:14:15;;;;;;;;;;;;;;;5.95;56.04;97288.91;6320909;28;19920;-64
2022/04/10 02:17:18;;;;;;;;;;;;;;;6.02;55.89;97274.69;6321273;28;20411;-63
2022/04/10 02:20:19;;;;;;;;;;;;;;;6.12;55.66;97269.94;6321111;28;19927;-64
2022/04/10 02:23:20;;;;;;;;;;;;;;;6.19;55.37;97263.53;6320757;28;19919;-64
2022/04/10 02:26:23;;;;;;;;;;;;;;;6.30;55.05;97279.63;6320993;28;19963;-64
2022/04/10 02:29:27;;;;;;;;;;;;;;;6.33;55.41;97276.03;6320594;28;19920;-64
2022/04/10 02:32:29;;;;;;;;;;;;;;;6.43;54.94;97275.59;6321013;28;20312;-64
2022/04/10 02:35:30;;;;;;;;;;;;;;;6.56;54.71;97278.53;6320641;28;19926;-63
2022/04/10 02:38:35;;;;;;;;;;;;;;;6.70;54.52;97278.78;6320982;28;19923;-63
2022/04/10 02:41:37;;;;;;;;;;;;;;;6.94;53.89;97276.06;6320870;28;19926;-65
2022/04/10 02:44:39;;;;;;;;;;;;;;;7.00;53.37;97270.53;6320925;28;20307;-65
2022/04/10 02:47:40;;;;;;;;;;;;;;;7.09;52.99;97283.22;6319568;28;19920;-64
2022/04/10 02:50:41;;;;;;;;;;;;;;;7.16;53.09;97278.53;6320285;28;19927;-64
2022/04/10 02:53:44;;;;;;;;;;;;;;;7.15;52.94;97290.78;6320829;28;20371;-64
2022/04/10 02:56:45;;;;;;;;;;;;;;;7.37;52.72;97292.47;6321073;28;19926;-64
2022/04/10 03:00:05;;;;;;;;;;;;;;;7.48;52.06;97295.44;6320862;28;20400;-64
2022/04/10 03:03:25;;;;;;;;;;;;;;;7.58;52.00;97295.84;6320621;28;20312;-64
2022/04/10 03:06:47;;;;;;;;;;;;;;;7.75;51.86;97295.06;6320971;28;19927;-64
2022/04/10 03:10:07;;;;;;;;;;;;;;;7.96;51.13;97294.06;6319801;28;19927;-64
2022/04/10 03:13:29;;;;;;;;;;;;;;;8.03;50.77;97300.69;6320874;28;19924;-64
2022/04/10 03:16:48;;;;;;;;;;;;;;;8.13;50.53;97298.50;6321093;28;19927;-64
2022/04/10 03:20:11;;;;;;;;;;;;;;;8.24;50.21;97295.38;6320681;28;19920;-65
2022/04/10 03:23:30;;;;;;;;;;;;;;;8.21;50.03;97292.88;6320531;28;20408;-64
2022/04/10 03:26:50;;;;;;;;;;;;;;;8.30;50.22;97292.44;6320592;28;19927;-65
2022/04/10 03:30:14;;;;;;;;;;;;;;;8.24;50.05;97304.06;6320789;28;19924;-64
2022/04/10 03:33:36;;;;;;;;;;;;;;;8.25;50.36;97310.16;6325523;28;19920;-64
2022/04/10 03:36:58;;;;;;;;;;;;;;;8.36;50.07;97313.09;6325274;28;19920;-64
2022/04/10 03:40:18;;;;;;;;;;;;;;;8.38;49.97;97316.50;6325491;28;19927;-64
2022/04/10 03:43:40;;;;;;;;;;;;;;;8.51;49.83;97307.13;6325274;28;19927;-65
2022/04/10 03:47:02;;;;;;;;;;;;;;;8.57;49.55;97313.00;6324857;28;19924;-64
2022/04/10 03:50:25;;;;;;;;;;;;;;;8.79;49.11;97304.91;6323890;28;19920;-63
2022/04/10 03:53:48;;;;;;;;;;;;;;;8.99;48.60;97302.94;6324698;28;19923;-64
2022/04/10 03:57:10;;;;;;;;;;;;;;;9.11;48.55;97308.50;6324884;28;19991;-64
2022/04/10 04:00:29;;;;;;;;;;;;;;;9.35;48.07;97301.97;6324770;28;19927;-64
2022/04/10 04:03:49;;;;;;;;;;;;;;;9.52;47.69;97285.31;6324620;28;20273;-64
2022/04/10 04:07:13;;;;;;;;;;;;;;;9.77;47.38;97287.44;6324718;28;19924;-65
2022/04/10 04:10:34;;;;;;;;;;;;;;;10.06;46.87;97306.84;6324251;28;20278;-64
2022/04/10 04:13:55;;;;;;;;;;;;;;;10.29;46.62;97316.09;6324641;28;19934;-66
2022/04/10 04:17:19;;;;;;;;;;;;;;;10.47;46.35;97308.09;6324630;28;20317;-64
2022/04/10 04:20:41;;;;;;;;;;;;;;;10.68;45.84;97320.03;6324616;28;19919;-65
2022/04/10 04:24:00;;;;;;;;;;;;;;;10.74;46.02;97314.41;6324163;28;19927;-65
2022/04/10 04:27:22;;;;;;;;;;;;;;;10.85;45.88;97312.94;6324076;28;19924;-65
2022/04/10 04:30:42;;;;;;;;;;;;;;;10.96;45.75;97313.16;6323556;28;19927;-65
2022/04/10 04:34:02;;;;;;;;;;;;;;;11.11;45.35;97311.38;6324054;28;19927;-64
2022/04/10 04:37:22;;;;;;;;;;;;;;;11.20;44.78;97316.09;6323523;28;19932;-65
2022/04/10 04:40:44;;;;;;;;;;;;;;;11.05;44.91;97317.84;6322508;28;19961;-65
2022/04/10 04:44:05;;;;;;;;;;;;;;;11.10;44.74;97315.81;6323642;28;19924;-65
2022/04/10 04:47:27;;;;;;;;;;;;;;;11.38;44.69;97308.84;6323567;28;19920;-64
2022/04/10 04:50:48;;;;;;;;;;;;;;;11.79;44.03;97313.34;6323467;28;20018;-65
2022/04/10 04:54:10;;;;;;;;;;;;;;;12.29;42.96;97322.53;6323533;28;19920;-65
2022/04/10 04:57:32;;;;;;;;;;;;;;;12.73;42.21;97321.38;6323366;28;19920;-65
2022/04/10 05:00:51;;;;;;;;;;;;;;;13.08;41.61;97320.81;6323324;28;20393;-64
2022/04/10 05:04:11;;;;;;;;;;;;;;;13.28;41.24;97328.28;6322821;28;19920;-65
2022/04/10 05:07:33;;;;;;;;;;;;;;;13.52;40.87;97330.16;6323031;28;20022;-66
2022/04/10 05:10:55;;;;;;;;;;;;;;;13.92;39.72;97317.63;6323204;28;20274;-64
2022/04/10 05:14:15;;;;;;;;;;;;;;;14.08;39.70;97325.31;6323036;28;19919;-64
2022/04/10 05:17:35;;;;;;;;;;;;;;;14.49;38.82;97332.06;6322818;28;19923;-66
2022/04/10 05:20:56;;;;;;;;;;;;;;;14.72;38.72;97344.50;6322567;28;19923;-65
2022/04/10 05:24:16;;;;;;;;;;;;;;;15.41;37.90;97335.78;6322868;28;20408;-64
2022/04/10 05:27:36;;;;;;;;;;;;;;;16.70;36.01;97341.47;6322507;28;19919;-64
2022/04/10 05:30:55;;;;;;;;;;;;;;;19.00;33.20;97338.41;6322186;28;20393;-66
2022/04/10 05:34:17;;;;;;;;;;;;;;;21.34;30.44;97337.31;6322214;28;19920;-65
2022/04/10 05:37:42;;;;;;;;;;;;;;;23.23;27.53;97339.84;6322336;28;20290;-65
2022/04/10 05:41:04;;;;;;;;;;;;;;;24.70;25.54;97354.81;6322159;28;19931;-64
2022/04/10 05:44:23;;;;;;;;;;;;;;;26.05;25.09;97358.63;6322345;28;19920;-66
2022/04/10 05:47:44;;;;;;;;;;;;;;;26.61;25.37;97352.75;6322068;28;19919;-65
2022/04/10 05:51:06;;;;;;;;;;;;;;;27.58;24.55;97354.19;6322024;28;19920;-64
2022/04/10 05:54:26;;;;;;;;;;;;;;;29.19;22.42;97350.31;6321417;28;20305;-65
2022/04/10 05:57:46;;;;;;;;;;;;;;;29.71;21.04;97347.84;6321619;28;20316;-65
2022/04/10 06:01:11;;;;;;;;;;;;;;;29.72;21.14;97349.53;6321727;28;19920;-65
2022/04/10 06:04:33;;;;;;;;;;;;;;;30.14;21.27;97344.66;6321753;28;20375;-64
2022/04/10 06:07:54;;;;;;;;;;;;;;;30.28;20.91;97334.66;6321566;28;20404;-65
2022/04/10 06:11:19;;;;;;;;;;;;;;;30.50;20.53;97332.47;6320938;28;20015;-65
2022/04/10 06:14:38;;;;;;;;;;;;;;;30.12;19.45;97344.03;6321394;28;20286;-65
2022/04/10 06:17:40;;;;;;;;;;;;;;;29.93;20.03;97327.59;6321075;28;20411;-65
2022/04/10 06:20:43;;;;;;;;;;;;;;;29.42;20.85;97341.78;6320988;28;19919;-64
2022/04/10 06:23:44;;;;;;;;;;;;;;;29.66;20.32;97347.66;6320064;28;19921;-65
2022/04/10 06:26:48;;;;;;;;;;;;;;;30.07;19.89;97349.28;6320599;28;19919;-64
2022/04/10 06:29:54;;;;;;;;;;;;;;;30.37;19.18;97331.47;6320721;28;19920;-65
2022/04/10 06:32:55;;;;;;;;;;;;;;;29.60;19.56;97332.19;6320674;28;19950;-65
2022/04/10 06:35:59;;;;;;;;;;;;;;;28.38;20.97;97325.81;6320059;28;20308;-65
2022/04/10 06:39:03;;;;;;;;;;;;;;;27.81;20.31;97316.13;6320900;28;19920;-65
2022/04/10 06:42:09;;;;;;;;;;;;;;;28.93;19.14;97321.25;6321139;28;19933;-65
2022/04/10 06:45:10;;;;;;;;;;;;;;;30.92;15.73;97313.94;6321061;28;19920;-65
2022/04/10 06:48:14;;;;;;;;;;;;;;;32.27;14.85;97316.16;6321181;28;19920;-65
2022/04/10 06:51:17;;;;;;;;;;;;;;;34.09;13.57;97312.28;6319794;28;19919;-65
2022/04/10 06:54:23;;;;;;;;;;;;;;;33.90;13.56;97308.81;6320970;28;19919;-65
2022/04/10 06:57:24;;;;;;;;;;;;;;;32.81;14.17;97312.59;6319703;28;19920;-66
2022/04/10 07:00:27;;;;;;;;;;;;;;;31.63;15.07;97310.09;6320886;28;19920;-65
2022/04/10 07:03:31;;;;;;;;;;;;;;;31.20;15.40;97311.66;6320700;28;20378;-65
2022/04/10 07:06:35;;;;;;;;;;;;;;;31.39;14.06;97292.69;6323406;28;19970;-66
2022/04/10 07:09:38;;;;;;;;;;;;;;;31.80;14.03;97294.03;6324899;28;19920;-65
2022/04/10 07:12:42;;;;;;;;;;;;;;;32.75;12.97;97301.75;6325157;28;19927;-65
2022/04/10 07:15:47;;;;;;;;;;;;;;;34.31;12.10;97307.88;6325095;28;20316;-65
2022/04/10 07:18:53;;;;;;;;;;;;;;;35.86;11.03;97309.66;6325308;28;19931;-67
2022/04/10 07:25:20;;;;;;;;;;;;;;;36.62;10.04;97304.44;6325706;28;19924;-66
2022/04/10 07:28:21;;;;;;;;;;;;;;;37.33;10.35;97307.13;6325240;28;20286;-65
2022/04/10 07:31:26;;;;;;;;;;;;;;;38.80;9.19;97309.19;6324173;28;19926;-66
2022/04/10 07:34:29;;;;;;;;;;;;;;;39.64;8.81;97312.66;6324014;28;19920;-66
2022/04/10 07:37:33;;;;;;;;;;;;;;;39.65;8.95;97302.47;6325251;28;20301;-66
2022/04/10 07:40:39;;;;;;;;;;;;;;;39.93;8.57;97298.34;6325314;28;19920;-65
2022/04/10 07:43:40;;;;;;;;;;;;;;;39.66;8.61;97298.59;6324710;28;19982;-69
2022/04/10 07:50:05;;;;;;;;;;;;;;;39.65;8.22;97288.69;6325118;28;19920;-66
2022/04/10 07:53:06;;;;;;;;;;;;;;;39.04;8.16;97293.06;6324541;28;19965;-66
2022/04/10 07:56:07;;;;;;;;;;;;;;;37.81;8.76;97291.59;6322979;28;19920;-66
2022/04/10 07:59:10;;;;;;;;;;;;;;;37.23;9.47;97274.13;6324498;28;19994;-65
2022/04/10 08:02:11;;;;;;;;;;;;;;;37.74;9.03;97283.59;6323863;28;19936;-66
2022/04/10 08:05:16;;;;;;;;;;;;;;;38.29;8.26;97278.72;6323938;28;19927;-65
2022/04/10 08:08:19;;;;;;;;;;;;;;;38.83;8.27;97280.31;6324629;28;19920;-66
2022/04/10 08:11:20;;;;;;;;;;;;;;;39.43;7.93;97275.22;6323420;28;19920;-66
2022/04/10 08:14:24;;;;;;;;;;;;;;;39.83;8.04;97281.81;6323986;28;19927;-65
2022/04/10 08:17:26;;;;;;;;;;;;;;;40.34;7.55;97276.19;6324096;28;20018;-64
2022/04/10 08:20:30;;;;;;;;;;;;;;;39.46;7.80;97277.41;6324323;28;19924;-66
2022/04/10 08:23:31;;;;;;;;;;;;;;;36.52;8.95;97264.00;6323533;28;19928;-65
2022/04/10 08:26:37;;;;;;;;;;;;;;;34.51;10.08;97261.00;6323863;28;20012;-65
2022/04/10 08:29:38;;;;;;;;;;;;;;;34.23;10.02;97256.34;6323139;28;20287;-65
2022/04/10 08:32:43;;;;;;;;;;;;;;;33.95;9.93;97262.53;6323815;28;19920;-65
2022/04/10 08:35:44;;;;;;;;;;;;;;;33.41;10.38;97262.63;6323921;28;19927;-65
2022/04/10 08:38:46;;;;;;;;;;;;;;;33.65;10.19;97257.19;6323372;28;20369;-66
2022/04/10 08:41:53;;;;;;;;;;;;;;;33.12;10.71;97258.88;6323847;28;19919;-65
2022/04/10 08:44:57;;;;;;;;;;;;;;;31.95;10.79;97254.53;6322890;28;19928;-65
2022/04/10 08:48:01;;;;;;;;;;;;;;;31.37;10.78;97262.22;6323553;28;20397;-65
2022/04/10 08:51:02;;;;;;;;;;;;;;;30.91;11.55;97263.34;6321808;28;20436;-65
2022/04/10 08:54:06;;;;;;;;;;;;;;;30.75;11.64;97249.19;6322937;28;19926;-65
2022/04/10 08:57:09;;;;;;;;;;;;;;;31.40;11.07;97248.16;6322649;28;19928;-65
2022/04/10 09:00:13;;;;;;;;;;;;;;;32.34;10.53;97248.84;6322051;28;19919;-65
2022/04/10 09:03:14;;;;;;;;;;;;;;;33.59;9.86;97241.78;6323180;28;19924;-65
2022/04/10 09:06:18;;;;;;;;;;;;;;;34.08;9.82;97250.53;6322019;28;19920;-65
2022/04/10 09:09:23;;;;;;;;;;;;;;;34.23;9.75;97245.41;6323121;28;19919;-65
2022/04/10 09:12:27;;;;;;;;;;;;;;;32.98;10.56;97246.50;6323241;28;20859;-65
2022/04/10 09:15:32;;;;;;;;;;;;;;;34.27;9.60;97249.31;6322486;28;20006;-65
2022/04/10 09:18:48;;;;;;;;;;;;;;;35.14;9.72;97253.75;6322551;28;20018;-64
2022/04/10 09:21:51;;;;;;;;;;;;;;;37.19;8.44;97254.56;6322133;28;20377;-65
2022/04/10 09:25:10;;;;;;;;;;;;;;;38.58;8.09;97259.06;6321945;28;19924;-65
2022/04/10 09:28:12;;;;;;;;;;;;;;;39.18;7.18;97249.31;6321425;28;19993;-65
2022/04/10 09:31:26;;;;;;;;;;;;;;;36.66;8.28;97249.91;6322145;28;19920;-65
2022/04/10 09:34:27;;;;;;;;;;;;;;;34.38;9.72;97239.44;6321695;28;19920;-65
2022/04/10 09:37:44;;;;;;;;;;;;;;;35.53;9.03;97245.63;6322316;28;19920;-68
2022/04/10 09:40:48;;;;;;;;;;;;;;;36.63;8.08;97248.50;6322072;28;20301;-65
2022/04/10 09:43:50;;;;;;;;;;;;;;;34.34;8.89;97236.34;6321535;28;19920;-65
2022/04/10 09:46:58;;;;;;;;;;;;;;;34.99;8.76;97239.75;6322127;28;19916;-65
2022/04/10 09:50:05;;;;;;;;;;;;;;;36.24;8.00;97234.88;6321137;28;19919;-66
2022/04/10 09:53:10;;;;;;;;;;;;;;;36.95;7.51;97234.03;6321296;28;19920;-65
2022/04/10 09:56:11;;;;;;;;;;;;;;;36.99;7.50;97241.47;6321918;28;19917;-65
2022/04/10 09:59:18;;;;;;;;;;;;;;;36.09;8.43;97226.47;6321627;28;20369;-64
2022/04/10 10:02:20;;;;;;;;;;;;;;;35.09;8.83;97229.03;6321429;28;20262;-65
2022/04/10 10:05:21;;;;;;;;;;;;;;;33.74;9.47;97223.88;6321001;28;19919;-64
2022/04/10 10:08:28;;;;;;;;;;;;;;;34.59;9.12;97224.28;6321613;28;19920;-65
2022/04/10 10:11:29;;;;;;;;;;;;;;;35.31;8.73;97227.22;6321151;28;19965;-64
2022/04/10 10:14:36;;;;;;;;;;;;;;;34.53;8.85;97225.22;6321642;28;19955;-65
2022/04/10 10:17:37;;;;;;;;;;;;;;;34.53;9.06;97214.28;6320980;28;20345;-64
2022/04/10 10:20:42;;;;;;;;;;;;;;;34.74;9.07;97221.84;6320772;28;19919;-64
2022/04/10 10:23:47;;;;;;;;;;;;;;;35.41;8.70;97221.06;6320508;28;20401;-65
2022/04/10 10:27:06;;;;;;;;;;;;;;;36.18;8.66;97224.97;6321128;28;19924;-66
2022/04/10 10:30:26;;;;;;;;;;;;;;;36.34;8.40;97220.47;6318809;28;19920;-64
2022/04/10 10:33:30;;;;;;;;;;;;;;;36.51;8.53;97218.47;6319760;28;19919;-65
2022/04/10 10:36:33;;;;;;;;;;;;;;;36.73;8.28;97221.22;6320795;28;19920;-66
2022/04/10 10:39:46;;;;;;;;;;;;;;;36.71;7.96;97219.81;6320607;28;19920;-65
2022/04/10 10:42:50;;;;;;;;;;;;;;;35.71;8.61;97218.00;6320189;28;19920;-64
2022/04/10 10:45:54;;;;;;;;;;;;;;;32.34;10.20;97213.44;6320880;28;19920;-65
2022/04/10 10:49:17;;;;;;;;;;;;;;;30.21;12.07;97198.94;6319642;28;20069;-65
2022/04/10 10:52:25;;;;;;;;;;;;;;;30.64;11.63;97198.28;6318918;28;19927;-65
2022/04/10 10:55:42;;;;;;;;;;;;;;;31.41;11.44;97196.25;6320816;28;19920;-65
2022/04/10 10:58:43;;;;;;;;;;;;;;;31.36;11.39;97200.69;6319812;28;19931;-65
2022/04/10 11:01:55;;;;;;;;;;;;;;;31.12;11.26;97189.59;6320448;28;19927;-64
2022/04/10 11:04:58;;;;;;;;;;;;;;;30.70;11.85;97174.84;6320617;28;19920;-65
2022/04/10 11:08:04;;;;;;;;;;;;;;;30.02;11.99;97178.13;6320279;28;19920;-64
2022/04/10 11:11:08;;;;;;;;;;;;;;;29.02;12.93;97181.84;6319903;28;20456;-65
2022/04/10 11:14:27;;;;;;;;;;;;;;;27.84;13.72;97183.22;6319815;28;19981;-64
2022/04/10 11:17:30;;;;;;;;;;;;;;;27.21;14.54;97178.69;6319842;28;19920;-65
2022/04/10 11:20:33;;;;;;;;;;;;;;;26.55;15.07;97178.09;6318723;28;19927;-65
2022/04/10 11:23:41;;;;;;;;;;;;;;;25.48;15.41;97178.66;6320030;28;20088;-64
2022/04/10 11:26:43;;;;;;;;;;;;;;;25.28;15.86;97175.69;6319888;28;20270;-65
2022/04/10 11:30:02;;;;;;;;;;;;;;;25.80;15.47;97163.09;6320005;28;20297;-65
2022/04/10 11:33:06;;;;;;;;;;;;;;;27.20;14.86;97177.00;6320238;28;19927;-65
2022/04/10 11:36:15;;;;;;;;;;;;;;;28.26;13.88;97178.59;6320211;28;19920;-65
2022/04/10 11:39:21;;;;;;;;;;;;;;;29.41;13.19;97168.47;6319744;28;19920;-65
2022/04/10 11:42:25;;;;;;;;;;;;;;;30.02;12.66;97168.13;6319385;28;19920;-65
2022/04/10 11:45:30;;;;;;;;;;;;;;;29.44;13.43;97168.06;6319583;28;19931;-66
2022/04/10 11:48:33;;;;;;;;;;;;;;;29.21;13.80;97163.94;6319851;28;19920;-65
2022/04/10 11:51:49;;;;;;;;;;;;;;;28.88;13.74;97166.66;6320876;28;19919;-65
2022/04/10 11:54:54;;;;;;;;;;;;;;;29.32;13.71;97162.47;6324997;28;19923;-64
2022/04/10 11:57:59;;;;;;;;;;;;;;;29.93;13.03;97164.00;6324779;28;19920;-65
2022/04/10 12:01:01;;;;;;;;;;;;;;;29.95;13.36;97168.16;6323959;28;19920;-65
2022/04/10 12:04:05;;;;;;;;;;;;;;;30.06;12.85;97163.09;6324155;28;19924;-64
2022/04/10 12:07:15;;;;;;;;;;;;;;;28.99;13.49;97168.72;6324603;28;19915;-63
2022/04/10 12:10:20;;;;;;;;;;;;;;;27.98;14.24;97171.44;6324187;28;19920;-64
2022/04/10 12:13:26;;;;;;;;;;;;;;;27.45;14.84;97160.34;6323782;28;19916;-64
2022/04/10 12:16:30;;;;;;;;;;;;;;;26.87;14.95;97161.38;6324221;28;20396;-65
2022/04/10 12:19:36;;;;;;;;;;;;;;;26.18;15.81;97158.38;6324020;28;20412;-65
2022/04/10 12:22:40;;;;;;;;;;;;;;;25.56;16.15;97161.53;6323610;28;19919;-65
2022/04/10 12:25:44;;;;;;;;;;;;;;;24.89;16.72;97155.16;6323777;28;19916;-65
2022/04/10 12:28:48;;;;;;;;;;;;;;;24.65;16.97;97151.66;6323712;28;19926;-65
2022/04/10 12:31:50;;;;;;;;;;;;;;;24.29;17.40;97155.94;6321883;28;19920;-65
2022/04/10 12:34:53;;;;;;;;;;;;;;;23.92;17.83;97154.84;6322824;28;20416;-64
2022/04/10 12:38:03;;;;;;;;;;;;;;;23.59;17.98;97154.16;6323472;28;19934;-65
2022/04/10 12:41:05;;;;;;;;;;;;;;;23.57;18.21;97151.63;6322728;28;19920;-65
2022/04/10 12:44:09;;;;;;;;;;;;;;;23.15;18.74;97149.25;6323443;28;19920;-65
2022/04/10 12:47:10;;;;;;;;;;;;;;;22.96;18.78;97140.56;6323060;28;19920;-65
2022/04/10 12:50:17;;;;;;;;;;;;;;;22.77;19.26;97149.78;6323261;28;19920;-64
2022/04/10 12:53:19;;;;;;;;;;;;;;;22.61;19.42;97141.75;6323206;28;19997;-66
2022/04/10 12:56:21;;;;;;;;;;;;;;;22.33;19.77;97131.34;6322849;28;19920;-65
2022/04/10 12:59:32;;;;;;;;;;;;;;;21.94;20.16;97131.97;6322649;28;19927;-65
2022/04/10 13:02:36;;;;;;;;;;;;;;;21.62;20.57;97138.03;6322959;28;19973;-65
2022/04/10 13:05:53;;;;;;;;;;;;;;;21.40;20.91;97134.13;6322996;28;19920;-65
2022/04/10 13:09:10;;;;;;;;;;;;;;;21.28;21.13;97130.00;6321647;28;20412;-65
2022/04/10 13:12:20;;;;;;;;;;;;;;;20.93;21.42;97121.16;6322970;28;19919;-65
2022/04/10 13:15:28;;;;;;;;;;;;;;;20.41;21.87;97105.91;6322899;28;19920;-65
2022/04/10 13:18:29;;;;;;;;;;;;;;;20.24;22.12;97113.91;6322106;28;19920;-66
2022/04/10 13:21:34;;;;;;;;;;;;;;;19.98;22.40;97108.50;6322531;28;19920;-65
2022/04/10 13:24:35;;;;;;;;;;;;;;;19.81;22.67;97119.03;6322308;28;19920;-65
2022/04/10 13:27:39;;;;;;;;;;;;;;;19.47;22.71;97121.47;6321991;28;19927;-64
2022/04/10 13:30:41;;;;;;;;;;;;;;;19.15;23.28;97122.75;6321543;28;19926;-65
2022/04/10 13:33:42;;;;;;;;;;;;;;;18.97;23.56;97124.50;6322483;28;20389;-65
2022/04/10 13:36:44;;;;;;;;;;;;;;;18.74;23.99;97127.53;6320545;28;19919;-64
2022/04/10 13:39:45;;;;;;;;;;;;;;;18.36;24.11;97125.72;6319960;28;20419;-65
2022/04/10 13:42:47;;;;;;;;;;;;;;;18.17;24.60;97129.22;6322005;28;19920;-65
2022/04/10 13:45:51;;;;;;;;;;;;;;;18.00;24.78;97119.28;6322050;28;19920;-65
2022/04/10 13:48:56;;;;;;;;;;;;;;;17.79;24.91;97128.25;6322283;28;19919;-65
2022/04/10 13:52:00;;;;;;;;;;;;;;;17.69;25.11;97128.22;6321254;28;20304;-65
2022/04/10 13:55:05;;;;;;;;;;;;;;;17.55;25.28;97125.06;6321922;28;19920;-65
2022/04/10 13:58:08;;;;;;;;;;;;;;;17.53;25.76;97127.06;6320262;28;20292;-65
2022/04/10 14:01:11;;;;;;;;;;;;;;;17.26;25.79;97129.34;6321811;28;19920;-64
2022/04/10 14:04:17;;;;;;;;;;;;;;;16.95;26.13;97133.00;6321121;28;19923;-66
2022/04/10 14:07:20;;;;;;;;;;;;;;;16.83;26.59;97140.22;6321282;28;19920;-64
2022/04/10 14:10:24;;;;;;;;;;;;;;;16.54;26.79;97132.03;6321326;28;19920;-65
2022/04/10 14:13:25;;;;;;;;;;;;;;;16.34;26.98;97139.03;6320915;28;19920;-64
2022/04/10 14:16:30;;;;;;;;;;;;;;;16.09;27.43;97146.38;6319579;28;19920;-65
2022/04/10 14:19:32;;;;;;;;;;;;;;;15.91;27.98;97142.63;6320919;28;20321;-66
2022/04/10 14:22:35;;;;;;;;;;;;;;;15.66;28.46;97147.22;6321333;28;20305;-65
2022/04/10 14:25:39;;;;;;;;;;;;;;;15.51;28.93;97151.09;6320748;28;19920;-65
2022/04/10 14:28:45;;;;;;;;;;;;;;;15.19;29.10;97143.91;6321440;28;19920;-65
2022/04/10 14:31:49;;;;;;;;;;;;;;;14.98;29.73;97154.41;6320771;28;19942;-66
2022/04/10 14:34:52;;;;;;;;;;;;;;;14.72;29.94;97164.38;6319977;28;19920;-65
2022/04/10 14:37:56;;;;;;;;;;;;;;;14.70;30.74;97153.06;6321485;28;19935;-65
2022/04/10 14:40:58;;;;;;;;;;;;;;;14.47;30.77;97167.19;6320975;28;20009;-65
2022/04/10 14:44:01;;;;;;;;;;;;;;;14.26;31.16;97178.41;6320975;28;20023;-65
2022/04/10 14:47:05;;;;;;;;;;;;;;;14.12;31.57;97171.50;6319478;28;20422;-65
2022/04/10 14:50:06;;;;;;;;;;;;;;;13.83;31.68;97170.16;6320497;28;20318;-65
2022/04/10 14:53:10;;;;;;;;;;;;;;;13.67;32.07;97181.00;6320556;28;20381;-65
2022/04/10 14:56:14;;;;;;;;;;;;;;;13.56;32.41;97178.28;6320780;28;19922;-65
2022/04/10 14:59:15;;;;;;;;;;;;;;;13.40;32.48;97178.56;6320506;28;20385;-65
2022/04/10 15:02:16;;;;;;;;;;;;;;;13.28;32.93;97184.72;6320644;28;19916;-66
2022/04/10 15:05:20;;;;;;;;;;;;;;;13.18;33.15;97189.78;6320668;28;20305;-65
2022/04/10 15:08:26;;;;;;;;;;;;;;;13.01;32.90;97188.31;6320405;28;19919;-65
2022/04/10 15:11:29;;;;;;;;;;;;;;;12.82;33.50;97186.09;6320763;28;19931;-65
2022/04/10 15:14:31;;;;;;;;;;;;;;;12.73;33.63;97194.66;6320587;28;19924;-65
2022/04/10 15:17:35;;;;;;;;;;;;;;;12.63;33.98;97198.88;6320563;28;19920;-65
2022/04/10 15:20:38;;;;;;;;;;;;;;;12.46;34.08;97203.50;6319781;28;19924;-65
2022/04/10 15:23:39;;;;;;;;;;;;;;;12.38;34.62;97210.25;6320500;28;19920;-64
2022/04/10 15:26:46;;;;;;;;;;;;;;;12.23;34.61;97212.09;6321706;28;20395;-66
2022/04/10 15:29:49;;;;;;;;;;;;;;;12.13;35.35;97220.59;6324936;28;19963;-65
2022/04/10 15:32:52;;;;;;;;;;;;;;;12.06;35.71;97227.25;6324578;28;19920;-65
2022/04/10 15:35:56;;;;;;;;;;;;;;;11.93;35.86;97236.88;6324847;28;19920;-65
2022/04/10 15:39:00;;;;;;;;;;;;;;;11.88;36.24;97228.41;6325371;28;19916;-65
2022/04/10 15:42:01;;;;;;;;;;;;;;;11.73;36.33;97234.66;6324812;28;19920;-65
2022/04/10 15:45:08;;;;;;;;;;;;;;;11.69;36.79;97242.75;6324971;28;19915;-65
2022/04/10 15:48:12;;;;;;;;;;;;;;;11.65;36.97;97238.63;6324930;28;20447;-65
2022/04/10 15:51:13;;;;;;;;;;;;;;;11.62;37.40;97237.97;6324485;28;19919;-65
2022/04/10 15:54:15;;;;;;;;;;;;;;;11.47;37.56;97245.06;6324763;28;19920;-64
2022/04/10 15:57:16;;;;;;;;;;;;;;;11.31;37.50;97249.56;6324361;28;19919;-65
2022/04/10 16:00:18;;;;;;;;;;;;;;;11.18;37.91;97252.97;6323897;28;19920;-65
2022/04/10 16:03:23;;;;;;;;;;;;;;;11.07;37.95;97252.78;6324657;28;19920;-65
2022/04/10 16:06:27;;;;;;;;;;;;;;;11.02;38.28;97254.84;6324418;28;19920;-66
2022/04/10 16:09:29;;;;;;;;;;;;;;;10.93;38.50;97269.41;6324015;28;20411;-66
2022/04/10 16:12:30;;;;;;;;;;;;;;;10.94;38.32;97257.09;6324028;28;19920;-65
2022/04/10 16:15:33;;;;;;;;;;;;;;;10.94;38.37;97265.00;6323674;28;20308;-66
2022/04/10 16:18:34;;;;;;;;;;;;;;;11.02;38.73;97271.47;6323941;28;19927;-65
2022/04/10 16:21:35;;;;;;;;;;;;;;;10.91;38.90;97267.81;6323797;28;20344;-65
2022/04/10 16:24:36;;;;;;;;;;;;;;;10.87;39.07;97268.91;6323925;28;19920;-65
2022/04/10 16:31:03;;;;;;;;;;;;;;;10.77;39.41;97272.09;6323300;28;19923;-64